Time;durP1;ratioP1;P1;durP2;ratioP2;P2;SDS_P1;SDS_P2;PMS_P1;PMS_P2;Temp;Humidity;BMP_temperature;BMP_pressure;BME280_temperature;BME280_humidity;BME280_pressure;Samples;Min_cycle;Max_cycle;Signal;HPM_P1;HPM_P2
2021/03/07 00:02:00;;;;;;;7.50;3.67;;;;;;;;;;5059444;28;20040;-60
2021/03/07 00:04:26;;;;;;;6.53;3.63;;;;;;;;;;5040174;28;20035;-60
2021/03/07 00:06:53;;;;;;;6.80;3.75;;;;;;;;;;5058650;28;20082;-60
2021/03/07 00:09:19;;;;;;;6.25;3.67;;;;;;;;;;5009838;28;20532;-60
2021/03/07 00:11:44;;;;;;;8.88;4.20;;;;;;;;;;5039660;28;20040;-60
2021/03/07 00:14:10;;;;;;;6.20;3.22;;;;;;;;;;5047061;28;20028;-60
2021/03/07 00:16:35;;;;;;;7.72;3.55;;;;;;;;;;5043011;28;20028;-60
2021/03/07 00:19:01;;;;;;;10.52;3.38;;;;;;;;;;5056838;28;20037;-60
2021/03/07 00:21:31;;;;;;;8.57;3.72;;;;;;;;;;5010644;28;20598;-60
2021/03/07 00:23:57;;;;;;;6.63;3.72;;;;;;;;;;5046746;28;20750;-63
2021/03/07 00:26:25;;;;;;;6.10;3.90;;;;;;;;;;5059751;28;20035;-59
2021/03/07 00:28:53;;;;;;;6.95;3.33;;;;;;;;;;5045164;28;20024;-62
2021/03/07 00:31:25;;;;;;;7.35;3.90;;;;;;;;;;5039540;28;20374;-61
2021/03/07 00:33:50;;;;;;;4.43;3.30;;;;;;;;;;5044177;28;20221;-60
2021/03/07 00:36:15;;;;;;;8.95;3.35;;;;;;;;;;5012090;28;20044;-61
2021/03/07 00:38:48;;;;;;;5.55;2.65;;;;;;;;;;5029687;28;20047;-60
2021/03/07 00:41:18;;;;;;;6.43;3.28;;;;;;;;;;5028724;28;20056;-60
2021/03/07 00:43:46;;;;;;;6.10;3.03;;;;;;;;;;5058407;28;20036;-60
2021/03/07 00:46:17;;;;;;;5.40;2.75;;;;;;;;;;5043701;28;20190;-61
2021/03/07 00:48:42;;;;;;;4.53;2.88;;;;;;;;;;5058664;28;20036;-60
2021/03/07 00:51:08;;;;;;;3.70;2.80;;;;;;;;;;5024976;28;20490;-60
2021/03/07 00:53:35;;;;;;;8.52;2.47;;;;;;;;;;5045311;28;20032;-60
2021/03/07 00:56:06;;;;;;;4.32;2.33;;;;;;;;;;5056813;28;20028;-60
2021/03/07 00:58:34;;;;;;;5.22;2.20;;;;;;;;;;5057720;28;20107;-61
2021/03/07 01:00:59;;;;;;;4.70;2.50;;;;;;;;;;5055535;28;20090;-61
2021/03/07 01:03:27;;;;;;;2.95;2.30;;;;;;;;;;5045959;28;20039;-61
2021/03/07 01:05:56;;;;;;;4.47;2.38;;;;;;;;;;5041831;28;20143;-61
2021/03/07 01:08:24;;;;;;;4.65;2.53;;;;;;;;;;5041296;28;20118;-60
2021/03/07 01:10:50;;;;;;;7.55;3.15;;;;;;;;;;5028779;28;20028;-60
2021/03/07 01:13:18;;;;;;;4.00;2.60;;;;;;;;;;5040654;28;21979;-60
2021/03/07 01:15:44;;;;;;;6.88;2.63;;;;;;;;;;5039543;28;20070;-61
2021/03/07 01:18:09;;;;;;;4.97;2.97;;;;;;;;;;5040977;28;20112;-61
2021/03/07 01:20:39;;;;;;;4.95;2.53;;;;;;;;;;5044573;28;20531;-61
2021/03/07 01:23:07;;;;;;;5.38;2.13;;;;;;;;;;5040441;28;21143;-60
2021/03/07 01:25:33;;;;;;;4.47;2.47;;;;;;;;;;5055868;28;20233;-60
2021/03/07 01:28:04;;;;;;;4.05;2.67;;;;;;;;;;5041890;28;20031;-62
2021/03/07 01:30:31;;;;;;;5.43;2.28;;;;;;;;;;5059109;28;20056;-61
2021/03/07 01:32:56;;;;;;;4.55;2.50;;;;;;;;;;5038199;28;20666;-61
2021/03/07 01:35:25;;;;;;;7.53;2.92;;;;;;;;;;5058520;28;20046;-60
2021/03/07 01:37:50;;;;;;;3.30;2.08;;;;;;;;;;5027089;28;20294;-61
2021/03/07 01:40:20;;;;;;;2.75;2.40;;;;;;;;;;5052705;28;20479;-60
2021/03/07 01:42:47;;;;;;;4.53;2.63;;;;;;;;;;5056491;28;20792;-60
2021/03/07 01:45:28;;;;;;;5.85;3.53;;;;;;;;;;5026922;28;20556;-60
2021/03/07 01:47:55;;;;;;;3.75;2.40;;;;;;;;;;5045916;28;20462;-61
2021/03/07 01:50:25;;;;;;;4.80;2.00;;;;;;;;;;5044470;28;20041;-61
2021/03/07 01:52:54;;;;;;;4.93;2.05;;;;;;;;;;5058203;28;20044;-61
2021/03/07 01:55:25;;;;;;;4.10;2.17;;;;;;;;;;5044093;28;20024;-61
2021/03/07 01:57:56;;;;;;;2.10;1.65;;;;;;;;;;5038510;28;20159;-61
2021/03/07 02:00:24;;;;;;;3.47;2.05;;;;;;;;;;5039099;28;20147;-60
2021/03/07 02:02:50;;;;;;;3.10;1.80;;;;;;;;;;5056219;28;20445;-61
2021/03/07 02:05:17;;;;;;;4.70;2.00;;;;;;;;;;5053852;28;21072;-61
2021/03/07 02:07:49;;;;;;;3.35;2.08;;;;;;;;;;5055489;28;20028;-61
2021/03/07 02:10:21;;;;;;;7.20;2.42;;;;;;;;;;5040006;28;20125;-61
2021/03/07 02:12:47;;;;;;;5.35;2.75;;;;;;;;;;5058112;28;20046;-61
2021/03/07 02:15:13;;;;;;;7.28;2.45;;;;;;;;;;5038595;28;20131;-61
2021/03/07 02:17:41;;;;;;;9.70;2.10;;;;;;;;;;5056901;28;20048;-61
2021/03/07 02:20:08;;;;;;;3.10;2.25;;;;;;;;;;5037295;28;20130;-60
2021/03/07 02:22:51;;;;;;;5.32;2.78;;;;;;;;;;5027364;28;20135;-60
2021/03/07 02:25:19;;;;;;;4.00;2.42;;;;;;;;;;5027724;28;20024;-61
2021/03/07 02:27:45;;;;;;;6.13;3.30;;;;;;;;;;5055728;28;20131;-60
2021/03/07 02:30:14;;;;;;;4.65;2.33;;;;;;;;;;5053398;28;21950;-61
2021/03/07 02:32:45;;;;;;;5.40;3.47;;;;;;;;;;5058168;28;20040;-60
2021/03/07 02:35:23;;;;;;;3.83;2.47;;;;;;;;;;5041144;28;20960;-61
2021/03/07 02:37:52;;;;;;;3.95;2.80;;;;;;;;;;5039685;28;20025;-62
2021/03/07 02:40:22;;;;;;;3.92;2.33;;;;;;;;;;5044652;28;20028;-60
2021/03/07 02:42:52;;;;;;;3.85;2.38;;;;;;;;;;5041326;28;20059;-61
2021/03/07 02:45:22;;;;;;;3.42;2.33;;;;;;;;;;5038206;28;20149;-61
2021/03/07 02:47:51;;;;;;;5.63;2.38;;;;;;;;;;5039615;28;20046;-61
2021/03/07 02:50:20;;;;;;;4.15;2.28;;;;;;;;;;5044352;28;20101;-61
2021/03/07 02:52:50;;;;;;;5.60;2.33;;;;;;;;;;5059735;28;20020;-61
2021/03/07 02:55:16;;;;;;;8.07;2.50;;;;;;;;;;5042864;28;20026;-61
2021/03/07 02:57:42;;;;;;;2.60;2.17;;;;;;;;;;5044790;28;20582;-61
2021/03/07 03:00:09;;;;;;;5.35;2.75;;;;;;;;;;5061302;28;20054;-61
2021/03/07 03:02:38;;;;;;;3.30;2.17;;;;;;;;;;5048718;28;20582;-61
2021/03/07 03:05:05;;;;;;;8.35;2.85;;;;;;;;;;5059779;28;20119;-61
2021/03/07 03:07:32;;;;;;;5.05;2.20;;;;;;;;;;5051234;28;20147;-61
2021/03/07 03:09:58;;;;;;;11.60;2.45;;;;;;;;;;5030425;28;20040;-62
2021/03/07 03:12:28;;;;;;;3.47;2.05;;;;;;;;;;5048009;28;20017;-61
2021/03/07 03:14:56;;;;;;;3.42;2.47;;;;;;;;;;5049902;28;20035;-62
2021/03/07 03:17:24;;;;;;;6.55;2.13;;;;;;;;;;5042979;28;20033;-61
2021/03/07 03:19:50;;;;;;;3.58;1.90;;;;;;;;;;5056466;28;20040;-61
2021/03/07 03:22:22;;;;;;;2.17;1.92;;;;;;;;;;5059186;28;20036;-60
2021/03/07 03:24:51;;;;;;;2.58;1.70;;;;;;;;;;5060222;28;20117;-60
2021/03/07 03:27:16;;;;;;;3.58;1.92;;;;;;;;;;5030184;28;20075;-60
2021/03/07 03:29:41;;;;;;;4.75;1.65;;;;;;;;;;5058206;28;20115;-62
2021/03/07 03:32:09;;;;;;;3.45;1.58;;;;;;;;;;5025917;28;20028;-62
2021/03/07 03:34:36;;;;;;;4.38;1.98;;;;;;;;;;5059298;28;21954;-60
2021/03/07 03:37:01;;;;;;;2.92;1.73;;;;;;;;;;5041470;28;20031;-60
2021/03/07 03:39:28;;;;;;;2.05;1.42;;;;;;;;;;5025620;28;20028;-60
2021/03/07 03:42:05;;;;;;;2.00;1.80;;;;;;;;;;5059650;28;20030;-60
2021/03/07 03:44:38;;;;;;;5.05;2.10;;;;;;;;;;5038662;28;20101;-60
2021/03/07 03:47:07;;;;;;;4.15;1.45;;;;;;;;;;5047867;28;20028;-60
2021/03/07 03:49:40;;;;;;;9.02;2.03;;;;;;;;;;5059610;28;20028;-61
2021/03/07 03:52:06;;;;;;;4.72;1.70;;;;;;;;;;5025842;28;22071;-61
2021/03/07 03:54:46;;;;;;;2.88;1.70;;;;;;;;;;5058483;28;20499;-60
2021/03/07 03:57:13;;;;;;;4.43;2.00;;;;;;;;;;5059770;28;20036;-60
2021/03/07 03:59:38;;;;;;;3.92;1.63;;;;;;;;;;5028415;28;20036;-60
2021/03/07 04:02:04;;;;;;;4.05;1.63;;;;;;;;;;5054458;28;20119;-60
2021/03/07 04:04:32;;;;;;;5.30;1.70;;;;;;;;;;5058619;28;20106;-60
2021/03/07 04:07:01;;;;;;;5.43;1.77;;;;;;;;;;5028801;28;20104;-60
2021/03/07 04:09:29;;;;;;;2.92;1.30;;;;;;;;;;5042007;28;20122;-61
2021/03/07 04:11:56;;;;;;;3.38;1.52;;;;;;;;;;5029808;28;20454;-61
2021/03/07 04:14:23;;;;;;;4.55;1.55;;;;;;;;;;5060634;28;20024;-61
2021/03/07 04:16:49;;;;;;;3.78;1.65;;;;;;;;;;5040929;28;20043;-60
2021/03/07 04:19:17;;;;;;;4.72;1.63;;;;;;;;;;5047246;28;20039;-60
2021/03/07 04:21:44;;;;;;;2.08;1.20;;;;;;;;;;5045831;28;20044;-60
2021/03/07 04:24:12;;;;;;;2.08;1.27;;;;;;;;;;5056997;28;20032;-61
2021/03/07 04:26:40;;;;;;;2.67;1.25;;;;;;;;;;5046252;28;20032;-60
2021/03/07 04:29:11;;;;;;;2.15;1.48;;;;;;;;;;5059398;28;20123;-60
2021/03/07 04:31:37;;;;;;;2.72;1.48;;;;;;;;;;5058164;28;20040;-60
2021/03/07 04:34:05;;;;;;;3.10;1.50;;;;;;;;;;5058864;28;20106;-60
2021/03/07 04:36:35;;;;;;;4.68;1.48;;;;;;;;;;5039898;28;20032;-61
2021/03/07 04:39:00;;;;;;;2.67;1.45;;;;;;;;;;5059501;28;20046;-60
2021/03/07 04:41:28;;;;;;;2.13;1.88;;;;;;;;;;5047186;28;20032;-60
2021/03/07 04:44:00;;;;;;;2.03;1.10;;;;;;;;;;5040814;28;20055;-60
2021/03/07 04:46:26;;;;;;;2.30;1.40;;;;;;;;;;5040437;28;20028;-60
2021/03/07 04:48:58;;;;;;;3.20;1.13;;;;;;;;;;5058033;28;20032;-60
2021/03/07 04:51:26;;;;;;;3.63;1.65;;;;;;;;;;5056035;28;20035;-60
2021/03/07 04:53:54;;;;;;;4.72;1.50;;;;;;;;;;5039975;28;20063;-61
2021/03/07 04:56:22;;;;;;;1.88;1.60;;;;;;;;;;5057161;28;20047;-60
2021/03/07 04:58:50;;;;;;;7.35;2.22;;;;;;;;;;5044884;28;20090;-60
2021/03/07 05:01:18;;;;;;;5.82;1.55;;;;;;;;;;5023480;28;20043;-60
2021/03/07 05:03:44;;;;;;;1.80;1.52;;;;;;;;;;5012626;28;20117;-60
2021/03/07 05:06:12;;;;;;;4.18;1.48;;;;;;;;;;5055695;28;20040;-60
2021/03/07 05:08:38;;;;;;;2.22;1.35;;;;;;;;;;5023641;28;20036;-60
2021/03/07 05:11:06;;;;;;;3.45;1.63;;;;;;;;;;5057068;28;20056;-60
2021/03/07 05:13:34;;;;;;;2.05;1.23;;;;;;;;;;5054273;28;20710;-60
2021/03/07 05:15:59;;;;;;;1.73;1.40;;;;;;;;;;5040860;28;20029;-60
2021/03/07 05:18:27;;;;;;;3.97;1.85;;;;;;;;;;5039995;28;20035;-60
2021/03/07 05:20:57;;;;;;;2.97;1.33;;;;;;;;;;5056100;28;22097;-60
2021/03/07 05:23:25;;;;;;;1.98;1.30;;;;;;;;;;5058717;28;20241;-61
2021/03/07 05:25:54;;;;;;;1.60;1.38;;;;;;;;;;5024255;28;20139;-60
2021/03/07 05:28:22;;;;;;;5.43;1.80;;;;;;;;;;5046478;28;20032;-60
2021/03/07 05:30:47;;;;;;;3.53;1.65;;;;;;;;;;5055282;28;20656;-61
2021/03/07 05:33:15;;;;;;;3.63;1.77;;;;;;;;;;5060007;28;20035;-61
2021/03/07 05:35:43;;;;;;;3.17;1.90;;;;;;;;;;5057186;28;20427;-61
2021/03/07 05:38:13;;;;;;;1.27;1.17;;;;;;;;;;5057527;28;20131;-60
2021/03/07 05:40:39;;;;;;;2.22;1.77;;;;;;;;;;5057915;28;20493;-60
2021/03/07 05:43:05;;;;;;;5.68;1.58;;;;;;;;;;5042406;28;20040;-61
2021/03/07 05:45:31;;;;;;;2.88;1.58;;;;;;;;;;5039966;28;20044;-60
2021/03/07 05:47:56;;;;;;;2.42;1.50;;;;;;;;;;5030191;28;21009;-60
2021/03/07 05:50:25;;;;;;;2.53;1.70;;;;;;;;;;5006717;28;21453;-60
2021/03/07 05:52:55;;;;;;;1.88;1.50;;;;;;;;;;5046248;28;20040;-60
2021/03/07 05:55:23;;;;;;;1.40;1.08;;;;;;;;;;5044317;28;20024;-60
2021/03/07 05:57:49;;;;;;;4.03;1.60;;;;;;;;;;5022148;28;21922;-61
2021/03/07 06:00:18;;;;;;;5.72;2.17;;;;;;;;;;5042174;28;20033;-60
2021/03/07 06:02:43;;;;;;;3.55;2.20;;;;;;;;;;5021191;28;20032;-60
2021/03/07 06:05:12;;;;;;;4.25;2.10;;;;;;;;;;5058769;28;20528;-59
2021/03/07 06:07:38;;;;;;;5.07;2.28;;;;;;;;;;5038870;28;20036;-61
2021/03/07 06:10:09;;;;;;;8.88;2.08;;;;;;;;;;5025333;28;20036;-61
2021/03/07 06:12:39;;;;;;;2.70;1.83;;;;;;;;;;5044572;28;20028;-60
2021/03/07 06:15:05;;;;;;;2.58;1.58;;;;;;;;;;5056286;28;22232;-60
2021/03/07 06:17:43;;;;;;;11.23;2.60;;;;;;;;;;5043660;28;20066;-60
2021/03/07 06:20:13;;;;;;;5.45;2.80;;;;;;;;;;5040074;28;20048;-61
2021/03/07 06:22:51;;;;;;;5.88;1.92;;;;;;;;;;5057652;28;20040;-60
2021/03/07 06:25:17;;;;;;;5.05;2.72;;;;;;;;;;5042984;28;20127;-60
2021/03/07 06:27:43;;;;;;;3.47;2.20;;;;;;;;;;5043014;28;20042;-60
2021/03/07 06:30:16;;;;;;;5.15;2.50;;;;;;;;;;5027031;28;20036;-60
2021/03/07 06:32:51;;;;;;;7.75;3.17;;;;;;;;;;5042336;28;20135;-60
2021/03/07 06:35:19;;;;;;;4.18;2.50;;;;;;;;;;5045210;28;20104;-60
2021/03/07 06:38:06;;;;;;;4.75;2.53;;;;;;;;;;5044508;28;20032;-60
2021/03/07 06:40:33;;;;;;;4.40;3.03;;;;;;;;;;5044838;28;20028;-60
2021/03/07 06:42:59;;;;;;;5.10;2.92;;;;;;;;;;5061065;28;20059;-61
2021/03/07 06:45:37;;;;;;;8.07;3.25;;;;;;;;;;5060584;28;21175;-60
2021/03/07 06:48:02;;;;;;;5.25;3.00;;;;;;;;;;5048741;28;20032;-60
2021/03/07 06:50:30;;;;;;;5.15;2.63;;;;;;;;;;5059625;28;20028;-60
2021/03/07 06:52:57;;;;;;;7.10;3.00;;;;;;;;;;5048869;28;20093;-60
2021/03/07 06:55:44;;;;;;;4.15;2.63;;;;;;;;;;5040852;28;20028;-60
2021/03/07 06:58:21;;;;;;;4.85;2.60;;;;;;;;;;5042500;28;20472;-60
2021/03/07 07:00:54;;;;;;;5.43;3.30;;;;;;;;;;5029131;28;20074;-60
2021/03/07 07:03:23;;;;;;;4.65;3.00;;;;;;;;;;5045745;28;20043;-60
2021/03/07 07:05:54;;;;;;;5.80;3.10;;;;;;;;;;5041128;28;21228;-61
2021/03/07 07:08:38;;;;;;;7.10;2.65;;;;;;;;;;5042942;28;21994;-61
2021/03/07 07:11:07;;;;;;;4.10;2.50;;;;;;;;;;5060576;28;20100;-60
2021/03/07 07:13:41;;;;;;;3.90;2.60;;;;;;;;;;5042399;28;20044;-60
2021/03/07 07:16:10;;;;;;;2.88;2.25;;;;;;;;;;5058560;28;20997;-60
2021/03/07 07:18:39;;;;;;;4.38;2.90;;;;;;;;;;5059516;28;20048;-60
2021/03/07 07:21:18;;;;;;;4.10;2.50;;;;;;;;;;5059224;28;20966;-61
2021/03/07 07:23:44;;;;;;;3.80;2.60;;;;;;;;;;5043266;28;20031;-60
2021/03/07 07:26:12;;;;;;;5.60;2.35;;;;;;;;;;5060326;28;20028;-60
2021/03/07 07:28:43;;;;;;;4.38;2.35;;;;;;;;;;5059464;28;20098;-61
2021/03/07 07:31:10;;;;;;;4.35;2.80;;;;;;;;;;5061574;28;20039;-62
2021/03/07 07:33:45;;;;;;;5.43;2.88;;;;;;;;;;5059313;28;20029;-61
2021/03/07 07:36:19;;;;;;;7.85;2.97;;;;;;;;;;5059868;28;20077;-60
2021/03/07 07:38:46;;;;;;;9.30;3.30;;;;;;;;;;5045829;28;20063;-60
2021/03/07 07:41:27;;;;;;;8.10;2.95;;;;;;;;;;5060274;28;20034;-60
2021/03/07 07:43:53;;;;;;;7.70;2.75;;;;;;;;;;5041225;28;20114;-60
2021/03/07 07:46:19;;;;;;;8.73;3.42;;;;;;;;;;5061114;28;20043;-61
2021/03/07 07:48:49;;;;;;;6.85;3.45;;;;;;;;;;5042647;28;20673;-60
2021/03/07 07:51:31;;;;;;;6.07;3.03;;;;;;;;;;5045805;28;20044;-61
2021/03/07 07:54:02;;;;;;;6.55;2.85;;;;;;;;;;5058594;28;20800;-61
2021/03/07 07:56:38;;;;;;;5.80;2.95;;;;;;;;;;5031649;28;20077;-60
2021/03/07 07:59:04;;;;;;;8.48;3.33;;;;;;;;;;5040137;28;20043;-61
2021/03/07 08:01:48;;;;;;;6.00;3.35;;;;;;;;;;5041204;28;20035;-60
2021/03/07 08:04:26;;;;;;;9.43;3.75;;;;;;;;;;5052549;28;21011;-60
2021/03/07 08:06:55;;;;;;;8.55;3.90;;;;;;;;;;5056966;28;20044;-60
2021/03/07 08:09:42;;;;;;;7.93;3.55;;;;;;;;;;5042332;28;20470;-61
2021/03/07 08:12:29;;;;;;;11.40;4.25;;;;;;;;;;5042179;28;20042;-60
2021/03/07 08:14:59;;;;;;;6.80;3.67;;;;;;;;;;5057997;28;20033;-61
2021/03/07 08:17:43;;;;;;;4.50;2.95;;;;;;;;;;5059643;28;20047;-60
2021/03/07 08:20:10;;;;;;;5.80;3.75;;;;;;;;;;5058766;28;20060;-60
2021/03/07 08:22:56;;;;;;;7.63;3.30;;;;;;;;;;5057987;28;20126;-60
2021/03/07 08:25:23;;;;;;;6.65;3.67;;;;;;;;;;5059426;28;20078;-61
2021/03/07 08:27:49;;;;;;;16.30;4.35;;;;;;;;;;5040721;28;20671;-61
2021/03/07 08:30:36;;;;;;;7.38;3.92;;;;;;;;;;5027430;28;20505;-62
2021/03/07 08:33:20;;;;;;;7.00;4.30;;;;;;;;;;5058231;28;20411;-62
2021/03/07 08:36:06;;;;;;;10.18;4.07;;;;;;;;;;5059252;28;20097;-60
2021/03/07 08:38:33;;;;;;;7.75;4.05;;;;;;;;;;5057015;28;20060;-61
2021/03/07 08:40:59;;;;;;;5.35;3.70;;;;;;;;;;5032296;28;20032;-61
2021/03/07 08:43:25;;;;;;;6.80;4.22;;;;;;;;;;5058521;28;20036;-61
2021/03/07 08:46:11;;;;;;;8.88;4.72;;;;;;;;;;5047382;28;20723;-61
2021/03/07 08:48:44;;;;;;;8.27;4.20;;;;;;;;;;5024726;28;20078;-60
2021/03/07 08:51:11;;;;;;;10.18;4.25;;;;;;;;;;5057849;28;20028;-61
2021/03/07 08:53:37;;;;;;;10.75;4.68;;;;;;;;;;5059381;28;20709;-61
2021/03/07 08:56:09;;;;;;;9.98;5.03;;;;;;;;;;5058567;28;20538;-61
2021/03/07 08:58:38;;;;;;;8.32;4.95;;;;;;;;;;5039645;28;20078;-60
2021/03/07 09:01:04;;;;;;;9.52;4.15;;;;;;;;;;5058655;28;20165;-60
2021/03/07 09:03:30;;;;;;;12.55;5.35;;;;;;;;;;5048124;28;20028;-61
2021/03/07 09:05:55;;;;;;;10.10;4.60;;;;;;;;;;5040332;28;20047;-62
2021/03/07 09:08:27;;;;;;;10.07;5.35;;;;;;;;;;5042566;28;20021;-60
2021/03/07 09:10:55;;;;;;;8.50;4.93;;;;;;;;;;5046447;28;20028;-60
2021/03/07 09:13:26;;;;;;;12.05;5.70;;;;;;;;;;5041003;28;20104;-61
2021/03/07 09:16:02;;;;;;;12.27;5.85;;;;;;;;;;5037621;28;20020;-61
2021/03/07 09:18:34;;;;;;;9.43;5.13;;;;;;;;;;5039315;28;20031;-61
2021/03/07 09:21:06;;;;;;;9.50;4.63;;;;;;;;;;5054992;28;20054;-61
2021/03/07 09:23:36;;;;;;;10.63;4.93;;;;;;;;;;5047749;28;20028;-61
2021/03/07 09:26:06;;;;;;;11.02;5.50;;;;;;;;;;5040766;28;20024;-61
2021/03/07 09:28:35;;;;;;;12.32;5.25;;;;;;;;;;5058268;28;20048;-61
2021/03/07 09:31:07;;;;;;;14.20;5.10;;;;;;;;;;5040065;28;20058;-61
2021/03/07 09:33:35;;;;;;;10.05;5.03;;;;;;;;;;5047522;28;20098;-61
2021/03/07 09:36:07;;;;;;;7.40;5.05;;;;;;;;;;5045668;28;20033;-61
2021/03/07 09:38:39;;;;;;;20.55;4.55;;;;;;;;;;5047739;28;20139;-61
2021/03/07 09:41:04;;;;;;;10.25;5.40;;;;;;;;;;5029336;28;20037;-60
2021/03/07 09:43:29;;;;;;;8.63;4.70;;;;;;;;;;5042048;28;20028;-64
2021/03/07 09:45:55;;;;;;;7.43;4.97;;;;;;;;;;5039993;28;20096;-61
2021/03/07 09:48:31;;;;;;;8.80;5.50;;;;;;;;;;5026060;28;20670;-61
2021/03/07 09:50:56;;;;;;;12.90;5.25;;;;;;;;;;5036916;28;20032;-61
2021/03/07 09:53:24;;;;;;;6.97;4.50;;;;;;;;;;5046138;28;20078;-61
2021/03/07 09:55:52;;;;;;;9.60;4.78;;;;;;;;;;5046305;28;20036;-61
2021/03/07 09:58:18;;;;;;;9.20;5.10;;;;;;;;;;5057574;28;20059;-61
2021/03/07 10:00:50;;;;;;;8.25;4.45;;;;;;;;;;5055219;28;20036;-60
2021/03/07 10:03:23;;;;;;;10.65;5.63;;;;;;;;;;5056948;28;20160;-62
2021/03/07 10:06:03;;;;;;;10.57;4.78;;;;;;;;;;5055719;28;20042;-62
2021/03/07 10:08:35;;;;;;;8.88;4.88;;;;;;;;;;5048008;28;20029;-60
2021/03/07 10:11:08;;;;;;;10.23;5.13;;;;;;;;;;5056895;28;20117;-61
2021/03/07 10:13:34;;;;;;;13.85;5.85;;;;;;;;;;5038202;28;20043;-62
2021/03/07 10:16:07;;;;;;;10.15;4.55;;;;;;;;;;5037426;28;20113;-62
2021/03/07 10:18:34;;;;;;;10.50;5.35;;;;;;;;;;5057181;28;20024;-63
2021/03/07 10:21:04;;;;;;;8.18;4.70;;;;;;;;;;5057855;28;20044;-62
2021/03/07 10:23:32;;;;;;;11.48;5.95;;;;;;;;;;5024094;28;20024;-62
2021/03/07 10:25:59;;;;;;;9.52;5.38;;;;;;;;;;5055218;28;20031;-61
2021/03/07 10:28:26;;;;;;;9.77;4.80;;;;;;;;;;5057467;28;20611;-61
2021/03/07 10:30:56;;;;;;;7.45;4.75;;;;;;;;;;5042152;28;20572;-60
2021/03/07 10:33:26;;;;;;;8.80;4.45;;;;;;;;;;5026696;28;20120;-61
2021/03/07 10:36:13;;;;;;;9.88;5.00;;;;;;;;;;5033251;28;20024;-62
2021/03/07 10:38:39;;;;;;;8.50;4.90;;;;;;;;;;5056630;28;20040;-61
2021/03/07 10:41:24;;;;;;;10.93;5.55;;;;;;;;;;5058763;28;20040;-62
2021/03/07 10:43:59;;;;;;;8.57;5.13;;;;;;;;;;5046541;28;20085;-62
2021/03/07 10:46:32;;;;;;;12.20;5.15;;;;;;;;;;5047728;28;20464;-62
2021/03/07 10:48:58;;;;;;;10.05;4.90;;;;;;;;;;5054205;28;20044;-62
2021/03/07 10:51:24;;;;;;;11.07;5.30;;;;;;;;;;5056757;28;20031;-62
2021/03/07 10:53:51;;;;;;;11.73;5.38;;;;;;;;;;5051009;28;21016;-62
2021/03/07 10:56:19;;;;;;;14.25;5.28;;;;;;;;;;5054326;28;20032;-62
2021/03/07 10:58:45;;;;;;;9.13;5.05;;;;;;;;;;5056958;28;20027;-62
2021/03/07 11:01:16;;;;;;;10.07;4.85;;;;;;;;;;5040551;28;20131;-63
2021/03/07 11:03:48;;;;;;;10.40;4.85;;;;;;;;;;5057717;28;20115;-62
2021/03/07 11:06:15;;;;;;;8.40;5.00;;;;;;;;;;5036581;28;20031;-62
2021/03/07 11:08:43;;;;;;;10.20;5.50;;;;;;;;;;5036930;28;20035;-62
2021/03/07 11:11:08;;;;;;;16.02;5.70;;;;;;;;;;5038594;28;20024;-62
2021/03/07 11:13:39;;;;;;;8.70;4.95;;;;;;;;;;5024847;28;20048;-62
2021/03/07 11:16:09;;;;;;;9.68;5.25;;;;;;;;;;5048347;28;20032;-62
2021/03/07 11:18:37;;;;;;;8.48;5.55;;;;;;;;;;5030505;28;20035;-62
2021/03/07 11:21:04;;;;;;;10.93;5.55;;;;;;;;;;5027996;28;20048;-61
2021/03/07 11:23:30;;;;;;;7.90;4.57;;;;;;;;;;5042246;28;20902;-61
2021/03/07 11:25:55;;;;;;;12.63;6.30;;;;;;;;;;5040787;28;20121;-60
2021/03/07 11:28:23;;;;;;;10.23;5.63;;;;;;;;;;5039469;28;20075;-60
2021/03/07 11:30:51;;;;;;;11.38;5.65;;;;;;;;;;5048858;28;20035;-60
2021/03/07 11:33:21;;;;;;;12.10;6.28;;;;;;;;;;5058629;28;20043;-62
2021/03/07 11:35:46;;;;;;;10.30;6.30;;;;;;;;;;5031894;28;20031;-61
2021/03/07 11:38:14;;;;;;;12.82;6.47;;;;;;;;;;5058343;28;20561;-61
2021/03/07 11:40:42;;;;;;;11.50;6.85;;;;;;;;;;5060152;28;20024;-62
2021/03/07 11:43:13;;;;;;;17.48;8.10;;;;;;;;;;5059980;28;20028;-61
2021/03/07 11:45:41;;;;;;;15.95;7.15;;;;;;;;;;5058515;28;20140;-62
2021/03/07 11:48:09;;;;;;;17.48;7.72;;;;;;;;;;5060482;28;20060;-61
2021/03/07 11:50:40;;;;;;;15.98;7.45;;;;;;;;;;5042926;28;20032;-61
2021/03/07 11:53:08;;;;;;;19.85;8.70;;;;;;;;;;5048354;28;20032;-61
2021/03/07 11:55:33;;;;;;;20.90;8.70;;;;;;;;;;5043042;28;20024;-61
2021/03/07 11:58:01;;;;;;;19.30;9.07;;;;;;;;;;5043454;28;20501;-60
2021/03/07 12:00:27;;;;;;;18.10;9.02;;;;;;;;;;5044418;28;21008;-61
2021/03/07 12:02:55;;;;;;;17.65;8.93;;;;;;;;;;5046746;28;20043;-61
2021/03/07 12:05:20;;;;;;;21.88;9.10;;;;;;;;;;5025132;28;20105;-61
2021/03/07 12:07:46;;;;;;;16.67;7.47;;;;;;;;;;5059425;28;20502;-62
2021/03/07 12:10:11;;;;;;;19.88;9.80;;;;;;;;;;5027094;28;20853;-61
2021/03/07 12:12:36;;;;;;;24.27;9.55;;;;;;;;;;5032190;28;20345;-62
2021/03/07 12:15:03;;;;;;;16.88;8.48;;;;;;;;;;5059169;28;20028;-61
2021/03/07 12:17:28;;;;;;;18.40;8.55;;;;;;;;;;5040560;28;20028;-61
2021/03/07 12:19:56;;;;;;;22.05;9.23;;;;;;;;;;5046621;28;20033;-61
2021/03/07 12:22:21;;;;;;;17.65;8.65;;;;;;;;;;5041315;28;20043;-61
2021/03/07 12:24:49;;;;;;;29.45;10.50;;;;;;;;;;5058414;28;20025;-61
2021/03/07 12:27:15;;;;;;;24.73;10.20;;;;;;;;;;5039924;28;20039;-59
2021/03/07 12:29:47;;;;;;;20.50;8.93;;;;;;;;;;5058334;28;20032;-60
2021/03/07 12:32:17;;;;;;;20.27;9.93;;;;;;;;;;5045940;28;20547;-61
2021/03/07 12:34:43;;;;;;;23.10;9.75;;;;;;;;;;5047877;28;20081;-61
2021/03/07 12:37:08;;;;;;;23.75;9.10;;;;;;;;;;5058856;28;20036;-61
2021/03/07 12:39:38;;;;;;;20.70;9.68;;;;;;;;;;5040765;28;20032;-62
2021/03/07 12:42:09;;;;;;;22.25;9.82;;;;;;;;;;5043273;28;20066;-61
2021/03/07 12:44:34;;;;;;;20.15;10.13;;;;;;;;;;5025675;28;20032;-61
2021/03/07 12:47:02;;;;;;;22.50;10.07;;;;;;;;;;5059958;28;20581;-61
2021/03/07 12:49:31;;;;;;;23.38;10.43;;;;;;;;;;5059765;28;20101;-61
2021/03/07 12:51:57;;;;;;;22.65;10.45;;;;;;;;;;5040293;28;20088;-61
2021/03/07 12:54:23;;;;;;;28.02;11.68;;;;;;;;;;5058043;28;20032;-62
2021/03/07 12:56:51;;;;;;;23.55;10.98;;;;;;;;;;5039808;28;20043;-62
2021/03/07 12:59:17;;;;;;;27.00;11.35;;;;;;;;;;5040207;28;20672;-61
2021/03/07 13:01:45;;;;;;;27.00;11.48;;;;;;;;;;5014685;28;20238;-62
2021/03/07 13:04:10;;;;;;;25.48;12.30;;;;;;;;;;5028419;28;20048;-61
2021/03/07 13:06:38;;;;;;;21.83;10.82;;;;;;;;;;5059245;28;20140;-61
2021/03/07 13:09:08;;;;;;;29.23;12.05;;;;;;;;;;5058554;28;22194;-61
2021/03/07 13:11:35;;;;;;;29.13;10.25;;;;;;;;;;5039949;28;20043;-62
2021/03/07 13:14:01;;;;;;;22.27;10.88;;;;;;;;;;5059971;28;20032;-61
2021/03/07 13:16:27;;;;;;;24.83;11.05;;;;;;;;;;5047355;28;22020;-61
2021/03/07 13:18:55;;;;;;;20.13;10.55;;;;;;;;;;5039483;28;20082;-61
2021/03/07 13:21:22;;;;;;;24.98;10.50;;;;;;;;;;5030063;28;20168;-61
2021/03/07 13:23:50;;;;;;;25.63;10.82;;;;;;;;;;5014102;28;20056;-61
2021/03/07 13:26:16;;;;;;;23.27;10.80;;;;;;;;;;5019448;28;20119;-61
2021/03/07 13:28:44;;;;;;;20.50;10.38;;;;;;;;;;5000097;28;20498;-61
2021/03/07 13:31:13;;;;;;;25.33;11.40;;;;;;;;;;5020777;28;20036;-62
2021/03/07 13:33:41;;;;;;;21.27;10.32;;;;;;;;;;4985578;28;20033;-61
2021/03/07 13:36:08;;;;;;;25.15;9.70;;;;;;;;;;5002994;28;20025;-60
2021/03/07 13:38:36;;;;;;;17.88;9.45;;;;;;;;;;4998687;28;20119;-60
2021/03/07 13:41:06;;;;;;;28.42;11.18;;;;;;;;;;5004816;28;20051;-60
2021/03/07 13:43:35;;;;;;;23.40;10.15;;;;;;;;;;4999734;28;20060;-60
2021/03/07 13:46:03;;;;;;;24.40;10.18;;;;;;;;;;5001825;28;20204;-60
2021/03/07 13:48:29;;;;;;;31.33;10.15;;;;;;;;;;4997022;28;20041;-60
2021/03/07 13:50:56;;;;;;;24.88;10.35;;;;;;;;;;5017128;28;20624;-61
2021/03/07 13:53:27;;;;;;;23.67;11.57;;;;;;;;;;5000092;28;20132;-61
2021/03/07 13:55:57;;;;;;;26.77;10.02;;;;;;;;;;5018262;28;20484;-61
2021/03/07 13:58:25;;;;;;;21.83;10.10;;;;;;;;;;4999311;28;20028;-63
2021/03/07 14:00:53;;;;;;;22.60;9.85;;;;;;;;;;4998988;28;20033;-62
2021/03/07 14:03:20;;;;;;;23.65;9.48;;;;;;;;;;5016724;28;20152;-61
2021/03/07 14:05:46;;;;;;;16.45;8.13;;;;;;;;;;4998357;28;20032;-62
2021/03/07 14:08:12;;;;;;;21.73;9.48;;;;;;;;;;5000882;28;20036;-64
2021/03/07 14:10:39;;;;;;;18.25;8.98;;;;;;;;;;5017028;28;20041;-62
2021/03/07 14:13:07;;;;;;;18.02;9.00;;;;;;;;;;5018133;28;20073;-61
2021/03/07 14:15:35;;;;;;;23.25;8.77;;;;;;;;;;5018104;28;21006;-61
2021/03/07 14:18:03;;;;;;;18.17;8.48;;;;;;;;;;4998958;28;20060;-63
2021/03/07 14:20:29;;;;;;;20.58;9.07;;;;;;;;;;5004779;28;20548;-61
2021/03/07 14:22:57;;;;;;;25.90;8.75;;;;;;;;;;5033300;28;20040;-60
2021/03/07 14:25:25;;;;;;;22.10;8.73;;;;;;;;;;5036304;28;20032;-60
2021/03/07 14:27:51;;;;;;;21.73;9.25;;;;;;;;;;5034514;28;20028;-61
2021/03/07 14:30:20;;;;;;;21.75;9.50;;;;;;;;;;5037641;28;20040;-62
2021/03/07 14:32:45;;;;;;;20.42;9.18;;;;;;;;;;5041504;28;20037;-61
2021/03/07 14:35:11;;;;;;;18.83;8.50;;;;;;;;;;5024101;28;20031;-60
2021/03/07 14:37:40;;;;;;;19.83;9.38;;;;;;;;;;5036040;28;20108;-60
2021/03/07 14:40:06;;;;;;;21.95;8.98;;;;;;;;;;5035854;28;20037;-61
2021/03/07 14:42:32;;;;;;;22.05;8.35;;;;;;;;;;5024871;28;20218;-60
2021/03/07 14:44:57;;;;;;;17.73;8.57;;;;;;;;;;5020151;28;20036;-62
2021/03/07 14:47:25;;;;;;;17.92;8.63;;;;;;;;;;5036250;28;20051;-60
2021/03/07 14:49:55;;;;;;;21.42;9.52;;;;;;;;;;5041612;28;20041;-61